sensor_id;sensor_type;location;lat;lon;timestamp;P1;durP1;ratioP1;P2;durP2;ratioP2
3349;SDS011;1688;51.000;13.684;2024-01-11T00:00:45;3.00;;;1.90;;
3349;SDS011;1688;51.000;13.684;2024-01-11T00:03:18;2.43;;;2.33;;
3349;SDS011;1688;51.000;13.684;2024-01-11T00:05:51;2.40;;;2.20;;
3349;SDS011;1688;51.000;13.684;2024-01-11T00:08:25;1.10;;;1.00;;
3349;SDS011;1688;51.000;13.684;2024-01-11T00:10:58;2.37;;;2.27;;
3349;SDS011;1688;51.000;13.684;2024-01-11T00:13:32;4.00;;;3.70;;
3349;SDS011;1688;51.000;13.684;2024-01-11T00:16:05;4.33;;;3.50;;
3349;SDS011;1688;51.000;13.684;2024-01-11T00:18:38;8.43;;;2.93;;
3349;SDS011;1688;51.000;13.684;2024-01-11T00:21:12;2.00;;;1.90;;
3349;SDS011;1688;51.000;13.684;2024-01-11T00:23:45;2.00;;;1.90;;
3349;SDS011;1688;51.000;13.684;2024-01-11T00:26:18;13.33;;;3.93;;
3349;SDS011;1688;51.000;13.684;2024-01-11T00:28:52;3.27;;;1.90;;
3349;SDS011;1688;51.000;13.684;2024-01-11T00:31:25;1.13;;;1.13;;
3349;SDS011;1688;51.000;13.684;2024-01-11T00:33:59;1.10;;;1.10;;
3349;SDS011;1688;51.000;13.684;2024-01-11T00:36:32;2.83;;;2.63;;
3349;SDS011;1688;51.000;13.684;2024-01-11T00:39:07;1.67;;;1.57;;
3349;SDS011;1688;51.000;13.684;2024-01-11T00:41:40;2.30;;;1.33;;
3349;SDS011;1688;51.000;13.684;2024-01-11T00:44:13;14.93;;;2.93;;
3349;SDS011;1688;51.000;13.684;2024-01-11T00:46:46;1.47;;;1.47;;
3349;SDS011;1688;51.000;13.684;2024-01-11T00:49:20;4.17;;;3.03;;
3349;SDS011;1688;51.000;13.684;2024-01-11T00:51:53;6.03;;;1.37;;
3349;SDS011;1688;51.000;13.684;2024-01-11T00:54:26;1.17;;;1.07;;
3349;SDS011;1688;51.000;13.684;2024-01-11T00:57:00;3.60;;;2.70;;
3349;SDS011;1688;51.000;13.684;2024-01-11T00:59:33;2.30;;;2.20;;
3349;SDS011;1688;51.000;13.684;2024-01-11T01:02:06;0.60;;;0.50;;
3349;SDS011;1688;51.000;13.684;2024-01-11T01:04:39;1.27;;;1.27;;
3349;SDS011;1688;51.000;13.684;2024-01-11T01:07:13;2.70;;;2.50;;
3349;SDS011;1688;51.000;13.684;2024-01-11T01:09:46;0.87;;;0.87;;
3349;SDS011;1688;51.000;13.684;2024-01-11T01:12:19;0.70;;;0.70;;
3349;SDS011;1688;51.000;13.684;2024-01-11T01:14:53;1.47;;;1.40;;
3349;SDS011;1688;51.000;13.684;2024-01-11T01:17:26;0.80;;;0.80;;
3349;SDS011;1688;51.000;13.684;2024-01-11T01:19:59;0.60;;;0.50;;
3349;SDS011;1688;51.000;13.684;2024-01-11T01:22:33;1.13;;;1.13;;
3349;SDS011;1688;51.000;13.684;2024-01-11T01:25:06;2.40;;;1.97;;
3349;SDS011;1688;51.000;13.684;2024-01-11T01:27:40;3.13;;;1.90;;
3349;SDS011;1688;51.000;13.684;2024-01-11T01:30:13;3.40;;;3.20;;
3349;SDS011;1688;51.000;13.684;2024-01-11T01:32:46;0.80;;;0.80;;
3349;SDS011;1688;51.000;13.684;2024-01-11T01:35:20;4.47;;;3.13;;
3349;SDS011;1688;51.000;13.684;2024-01-11T01:37:53;2.10;;;1.27;;
3349;SDS011;1688;51.000;13.684;2024-01-11T01:40:27;1.23;;;1.23;;
3349;SDS011;1688;51.000;13.684;2024-01-11T01:43:00;1.63;;;1.53;;
3349;SDS011;1688;51.000;13.684;2024-01-11T01:45:33;6.60;;;2.77;;
3349;SDS011;1688;51.000;13.684;2024-01-11T01:48:07;2.10;;;2.00;;
3349;SDS011;1688;51.000;13.684;2024-01-11T01:50:40;1.10;;;0.70;;
3349;SDS011;1688;51.000;13.684;2024-01-11T01:53:15;0.80;;;0.80;;
3349;SDS011;1688;51.000;13.684;2024-01-11T01:55:48;4.67;;;2.50;;
3349;SDS011;1688;51.000;13.684;2024-01-11T01:58:22;1.77;;;1.27;;
3349;SDS011;1688;51.000;13.684;2024-01-11T02:00:55;1.73;;;0.93;;
3349;SDS011;1688;51.000;13.684;2024-01-11T02:03:29;5.93;;;3.43;;
3349;SDS011;1688;51.000;13.684;2024-01-11T02:06:03;2.23;;;1.30;;
3349;SDS011;1688;51.000;13.684;2024-01-11T02:08:38;1.63;;;1.53;;
3349;SDS011;1688;51.000;13.684;2024-01-11T02:11:13;2.50;;;2.30;;
3349;SDS011;1688;51.000;13.684;2024-01-11T02:13:46;3.80;;;2.70;;
3349;SDS011;1688;51.000;13.684;2024-01-11T02:16:19;1.77;;;1.67;;
3349;SDS011;1688;51.000;13.684;2024-01-11T02:18:53;1.20;;;1.10;;
3349;SDS011;1688;51.000;13.684;2024-01-11T02:21:26;9.80;;;4.03;;
3349;SDS011;1688;51.000;13.684;2024-01-11T02:41:52;1.77;;;1.67;;
3349;SDS011;1688;51.000;13.684;2024-01-11T02:44:25;1.00;;;1.00;;
3349;SDS011;1688;51.000;13.684;2024-01-11T02:46:58;2.33;;;2.20;;
3349;SDS011;1688;51.000;13.684;2024-01-11T02:49:32;2.10;;;1.93;;
3349;SDS011;1688;51.000;13.684;2024-01-11T02:52:05;0.60;;;0.50;;
3349;SDS011;1688;51.000;13.684;2024-01-11T02:54:38;1.80;;;1.70;;
3349;SDS011;1688;51.000;13.684;2024-01-11T02:57:12;0.97;;;0.90;;
3349;SDS011;1688;51.000;13.684;2024-01-11T02:59:45;2.30;;;1.97;;
3349;SDS011;1688;51.000;13.684;2024-01-11T03:02:18;2.20;;;2.10;;
3349;SDS011;1688;51.000;13.684;2024-01-11T03:04:51;2.00;;;1.73;;
3349;SDS011;1688;51.000;13.684;2024-01-11T03:07:25;1.17;;;1.07;;
3349;SDS011;1688;51.000;13.684;2024-01-11T03:09:58;1.17;;;0.80;;
3349;SDS011;1688;51.000;13.684;2024-01-11T03:12:31;20.57;;;3.37;;
3349;SDS011;1688;51.000;13.684;2024-01-11T03:15:05;1.17;;;1.03;;
3349;SDS011;1688;51.000;13.684;2024-01-11T03:17:38;2.37;;;2.23;;
3349;SDS011;1688;51.000;13.684;2024-01-11T03:20:11;1.77;;;1.67;;
3349;SDS011;1688;51.000;13.684;2024-01-11T03:22:46;0.87;;;0.87;;
3349;SDS011;1688;51.000;13.684;2024-01-11T03:25:19;2.13;;;1.93;;
3349;SDS011;1688;51.000;13.684;2024-01-11T03:27:52;2.73;;;2.53;;
3349;SDS011;1688;51.000;13.684;2024-01-11T03:30:25;5.00;;;3.53;;
3349;SDS011;1688;51.000;13.684;2024-01-11T03:32:59;0.60;;;0.60;;
3349;SDS011;1688;51.000;13.684;2024-01-11T03:35:32;4.10;;;1.80;;
3349;SDS011;1688;51.000;13.684;2024-01-11T03:38:06;1.13;;;1.03;;
3349;SDS011;1688;51.000;13.684;2024-01-11T03:40:39;1.40;;;1.30;;
3349;SDS011;1688;51.000;13.684;2024-01-11T03:43:12;1.60;;;1.10;;
3349;SDS011;1688;51.000;13.684;2024-01-11T03:45:46;1.67;;;0.90;;
3349;SDS011;1688;51.000;13.684;2024-01-11T03:48:19;3.00;;;1.90;;
3349;SDS011;1688;51.000;13.684;2024-01-11T03:50:52;10.40;;;2.43;;
3349;SDS011;1688;51.000;13.684;2024-01-11T03:53:26;3.60;;;1.37;;
3349;SDS011;1688;51.000;13.684;2024-01-11T03:55:59;2.73;;;2.03;;
3349;SDS011;1688;51.000;13.684;2024-01-11T03:58:33;1.77;;;1.67;;
3349;SDS011;1688;51.000;13.684;2024-01-11T04:01:06;2.20;;;2.10;;
3349;SDS011;1688;51.000;13.684;2024-01-11T04:03:42;2.27;;;2.07;;
3349;SDS011;1688;51.000;13.684;2024-01-11T04:13:25;2.20;;;1.10;;
3349;SDS011;1688;51.000;13.684;2024-01-11T04:16:03;2.30;;;1.43;;
3349;SDS011;1688;51.000;13.684;2024-01-11T04:18:36;0.93;;;0.93;;
3349;SDS011;1688;51.000;13.684;2024-01-11T04:21:25;1.87;;;1.63;;
3349;SDS011;1688;51.000;13.684;2024-01-11T04:24:02;0.60;;;0.60;;
3349;SDS011;1688;51.000;13.684;2024-01-11T04:26:35;1.10;;;1.10;;
3349;SDS011;1688;51.000;13.684;2024-01-11T04:29:08;3.43;;;1.77;;
3349;SDS011;1688;51.000;13.684;2024-01-11T04:31:42;1.37;;;1.27;;
3349;SDS011;1688;51.000;13.684;2024-01-11T04:34:15;2.60;;;2.40;;
3349;SDS011;1688;51.000;13.684;2024-01-11T04:36:48;3.33;;;2.93;;
3349;SDS011;1688;51.000;13.684;2024-01-11T04:39:22;1.60;;;1.53;;
3349;SDS011;1688;51.000;13.684;2024-01-11T04:41:55;2.03;;;1.83;;
3349;SDS011;1688;51.000;13.684;2024-01-11T04:44:28;3.30;;;2.37;;
3349;SDS011;1688;51.000;13.684;2024-01-11T04:47:02;2.80;;;2.60;;
3349;SDS011;1688;51.000;13.684;2024-01-11T04:49:35;1.10;;;1.10;;
3349;SDS011;1688;51.000;13.684;2024-01-11T04:52:08;1.07;;;1.07;;
3349;SDS011;1688;51.000;13.684;2024-01-11T04:54:42;1.00;;;0.93;;
3349;SDS011;1688;51.000;13.684;2024-01-11T04:57:15;0.60;;;0.50;;
3349;SDS011;1688;51.000;13.684;2024-01-11T04:59:48;0.60;;;0.60;;
3349;SDS011;1688;51.000;13.684;2024-01-11T05:02:22;2.30;;;2.20;;
3349;SDS011;1688;51.000;13.684;2024-01-11T05:04:55;6.40;;;1.47;;
3349;SDS011;1688;51.000;13.684;2024-01-11T05:07:28;1.57;;;1.47;;
3349;SDS011;1688;51.000;13.684;2024-01-11T05:10:02;2.87;;;2.67;;
3349;SDS011;1688;51.000;13.684;2024-01-11T05:12:36;3.10;;;2.90;;
3349;SDS011;1688;51.000;13.684;2024-01-11T05:15:10;1.73;;;1.63;;
3349;SDS011;1688;51.000;13.684;2024-01-11T05:17:43;4.00;;;3.63;;
3349;SDS011;1688;51.000;13.684;2024-01-11T05:20:17;1.50;;;1.40;;
3349;SDS011;1688;51.000;13.684;2024-01-11T05:22:50;0.80;;;0.80;;
3349;SDS011;1688;51.000;13.684;2024-01-11T05:25:23;0.60;;;0.60;;
3349;SDS011;1688;51.000;13.684;2024-01-11T05:27:57;0.80;;;0.80;;
3349;SDS011;1688;51.000;13.684;2024-01-11T05:30:30;1.53;;;1.27;;
3349;SDS011;1688;51.000;13.684;2024-01-11T05:33:04;17.13;;;3.03;;
3349;SDS011;1688;51.000;13.684;2024-01-11T05:35:37;0.80;;;0.80;;
3349;SDS011;1688;51.000;13.684;2024-01-11T05:38:11;1.00;;;1.00;;
3349;SDS011;1688;51.000;13.684;2024-01-11T05:40:44;1.20;;;1.20;;
3349;SDS011;1688;51.000;13.684;2024-01-11T05:43:17;11.73;;;4.33;;
3349;SDS011;1688;51.000;13.684;2024-01-11T05:45:50;0.60;;;0.60;;
3349;SDS011;1688;51.000;13.684;2024-01-11T05:48:24;1.73;;;1.37;;
3349;SDS011;1688;51.000;13.684;2024-01-11T05:50:57;1.80;;;1.00;;
3349;SDS011;1688;51.000;13.684;2024-01-11T05:53:30;0.70;;;0.70;;
3349;SDS011;1688;51.000;13.684;2024-01-11T05:56:08;0.80;;;0.80;;
3349;SDS011;1688;51.000;13.684;2024-01-11T05:58:42;0.60;;;0.57;;
3349;SDS011;1688;51.000;13.684;2024-01-11T06:01:16;1.63;;;1.53;;
3349;SDS011;1688;51.000;13.684;2024-01-11T06:03:50;0.67;;;0.67;;
3349;SDS011;1688;51.000;13.684;2024-01-11T06:06:23;2.63;;;2.50;;
3349;SDS011;1688;51.000;13.684;2024-01-11T06:08:56;2.07;;;1.97;;
3349;SDS011;1688;51.000;13.684;2024-01-11T06:11:30;3.57;;;3.23;;
3349;SDS011;1688;51.000;13.684;2024-01-11T06:14:03;4.53;;;3.27;;
3349;SDS011;1688;51.000;13.684;2024-01-11T06:16:36;4.30;;;3.90;;
3349;SDS011;1688;51.000;13.684;2024-01-11T06:19:10;6.70;;;3.80;;
3349;SDS011;1688;51.000;13.684;2024-01-11T06:21:43;1.03;;;1.03;;
3349;SDS011;1688;51.000;13.684;2024-01-11T06:24:17;5.30;;;4.80;;
3349;SDS011;1688;51.000;13.684;2024-01-11T06:26:50;2.00;;;1.90;;
3349;SDS011;1688;51.000;13.684;2024-01-11T06:29:23;1.17;;;1.17;;
3349;SDS011;1688;51.000;13.684;2024-01-11T06:31:56;2.40;;;1.63;;
3349;SDS011;1688;51.000;13.684;2024-01-11T06:34:30;1.80;;;1.70;;
3349;SDS011;1688;51.000;13.684;2024-01-11T06:37:03;2.00;;;1.53;;
3349;SDS011;1688;51.000;13.684;2024-01-11T06:39:37;3.70;;;3.33;;
3349;SDS011;1688;51.000;13.684;2024-01-11T06:42:13;3.63;;;2.73;;
3349;SDS011;1688;51.000;13.684;2024-01-11T06:44:46;1.53;;;1.43;;
3349;SDS011;1688;51.000;13.684;2024-01-11T06:47:20;0.80;;;0.80;;
3349;SDS011;1688;51.000;13.684;2024-01-11T06:49:54;4.50;;;4.23;;
3349;SDS011;1688;51.000;13.684;2024-01-11T06:52:27;1.83;;;1.73;;
3349;SDS011;1688;51.000;13.684;2024-01-11T06:55:01;1.27;;;1.27;;
3349;SDS011;1688;51.000;13.684;2024-01-11T06:57:34;1.00;;;0.90;;
3349;SDS011;1688;51.000;13.684;2024-01-11T07:00:08;28.30;;;2.20;;
3349;SDS011;1688;51.000;13.684;2024-01-11T07:02:42;0.80;;;0.80;;
3349;SDS011;1688;51.000;13.684;2024-01-11T07:05:15;0.90;;;0.90;;
3349;SDS011;1688;51.000;13.684;2024-01-11T07:07:49;1.60;;;1.50;;
3349;SDS011;1688;51.000;13.684;2024-01-11T07:10:22;1.00;;;1.00;;
3349;SDS011;1688;51.000;13.684;2024-01-11T07:12:55;0.60;;;0.60;;
3349;SDS011;1688;51.000;13.684;2024-01-11T07:15:29;0.70;;;0.70;;
3349;SDS011;1688;51.000;13.684;2024-01-11T07:18:02;1.47;;;1.17;;
3349;SDS011;1688;51.000;13.684;2024-01-11T07:20:36;2.40;;;1.80;;
3349;SDS011;1688;51.000;13.684;2024-01-11T07:23:09;8.53;;;3.53;;
3349;SDS011;1688;51.000;13.684;2024-01-11T07:25:42;1.10;;;1.00;;
3349;SDS011;1688;51.000;13.684;2024-01-11T07:28:15;2.33;;;2.23;;
3349;SDS011;1688;51.000;13.684;2024-01-11T07:30:49;7.33;;;2.80;;
3349;SDS011;1688;51.000;13.684;2024-01-11T07:33:23;0.80;;;0.80;;
3349;SDS011;1688;51.000;13.684;2024-01-11T07:35:56;7.10;;;1.73;;
3349;SDS011;1688;51.000;13.684;2024-01-11T07:38:31;5.80;;;2.40;;
3349;SDS011;1688;51.000;13.684;2024-01-11T07:41:04;1.87;;;0.77;;
3349;SDS011;1688;51.000;13.684;2024-01-11T07:43:37;1.23;;;1.13;;
3349;SDS011;1688;51.000;13.684;2024-01-11T07:46:25;2.83;;;1.57;;
3349;SDS011;1688;51.000;13.684;2024-01-11T07:49:10;0.77;;;0.77;;
3349;SDS011;1688;51.000;13.684;2024-01-11T07:51:43;1.40;;;1.30;;
3349;SDS011;1688;51.000;13.684;2024-01-11T07:54:16;1.33;;;1.23;;
3349;SDS011;1688;51.000;13.684;2024-01-11T07:56:50;2.30;;;1.87;;
3349;SDS011;1688;51.000;13.684;2024-01-11T07:59:23;1.53;;;1.43;;
3349;SDS011;1688;51.000;13.684;2024-01-11T08:01:56;1.27;;;1.17;;
3349;SDS011;1688;51.000;13.684;2024-01-11T08:04:30;2.60;;;2.23;;
3349;SDS011;1688;51.000;13.684;2024-01-11T08:07:03;5.40;;;5.07;;
3349;SDS011;1688;51.000;13.684;2024-01-11T08:09:37;3.27;;;1.90;;
3349;SDS011;1688;51.000;13.684;2024-01-11T08:12:17;1.97;;;1.57;;
3349;SDS011;1688;51.000;13.684;2024-01-11T08:14:50;4.70;;;2.30;;
3349;SDS011;1688;51.000;13.684;2024-01-11T08:17:24;1.80;;;1.70;;
3349;SDS011;1688;51.000;13.684;2024-01-11T08:19:57;5.37;;;2.73;;
3349;SDS011;1688;51.000;13.684;2024-01-11T08:22:30;2.93;;;2.73;;
3349;SDS011;1688;51.000;13.684;2024-01-11T08:25:06;1.07;;;1.07;;
3349;SDS011;1688;51.000;13.684;2024-01-11T08:27:40;2.87;;;2.30;;
3349;SDS011;1688;51.000;13.684;2024-01-11T08:30:13;2.50;;;1.80;;
3349;SDS011;1688;51.000;13.684;2024-01-11T08:32:48;3.13;;;2.67;;
3349;SDS011;1688;51.000;13.684;2024-01-11T08:35:21;2.00;;;1.60;;
3349;SDS011;1688;51.000;13.684;2024-01-11T08:37:54;1.47;;;1.40;;
3349;SDS011;1688;51.000;13.684;2024-01-11T08:40:28;10.77;;;3.23;;
3349;SDS011;1688;51.000;13.684;2024-01-11T08:43:01;15.20;;;3.70;;
3349;SDS011;1688;51.000;13.684;2024-01-11T08:45:35;3.07;;;0.97;;
3349;SDS011;1688;51.000;13.684;2024-01-11T08:48:08;3.47;;;3.20;;
3349;SDS011;1688;51.000;13.684;2024-01-11T08:50:42;4.43;;;2.60;;
3349;SDS011;1688;51.000;13.684;2024-01-11T08:53:15;6.43;;;1.00;;
3349;SDS011;1688;51.000;13.684;2024-01-11T08:55:49;1.70;;;1.60;;
3349;SDS011;1688;51.000;13.684;2024-01-11T08:58:23;2.00;;;1.90;;
3349;SDS011;1688;51.000;13.684;2024-01-11T09:00:56;3.50;;;1.43;;
3349;SDS011;1688;51.000;13.684;2024-01-11T09:03:30;1.00;;;1.00;;
3349;SDS011;1688;51.000;13.684;2024-01-11T09:06:03;3.37;;;1.60;;
3349;SDS011;1688;51.000;13.684;2024-01-11T09:08:37;3.93;;;3.53;;
3349;SDS011;1688;51.000;13.684;2024-01-11T09:11:10;2.27;;;2.13;;
3349;SDS011;1688;51.000;13.684;2024-01-11T09:13:44;3.03;;;2.63;;
3349;SDS011;1688;51.000;13.684;2024-01-11T09:16:17;1.57;;;1.47;;
3349;SDS011;1688;51.000;13.684;2024-01-11T09:18:51;2.67;;;2.13;;
3349;SDS011;1688;51.000;13.684;2024-01-11T09:21:24;2.70;;;2.10;;
3349;SDS011;1688;51.000;13.684;2024-01-11T09:23:58;20.63;;;2.97;;
3349;SDS011;1688;51.000;13.684;2024-01-11T09:26:31;3.50;;;2.63;;
3349;SDS011;1688;51.000;13.684;2024-01-11T09:29:04;2.03;;;1.90;;
3349;SDS011;1688;51.000;13.684;2024-01-11T09:31:38;3.57;;;2.20;;
3349;SDS011;1688;51.000;13.684;2024-01-11T09:34:11;1.93;;;1.83;;
3349;SDS011;1688;51.000;13.684;2024-01-11T09:36:45;3.33;;;2.87;;
3349;SDS011;1688;51.000;13.684;2024-01-11T09:39:18;4.17;;;2.33;;
3349;SDS011;1688;51.000;13.684;2024-01-11T09:41:52;10.00;;;4.10;;
3349;SDS011;1688;51.000;13.684;2024-01-11T09:44:29;6.03;;;4.37;;
3349;SDS011;1688;51.000;13.684;2024-01-11T09:47:03;3.03;;;2.70;;
3349;SDS011;1688;51.000;13.684;2024-01-11T09:49:37;4.00;;;3.60;;
3349;SDS011;1688;51.000;13.684;2024-01-11T09:52:11;7.97;;;4.20;;
3349;SDS011;1688;51.000;13.684;2024-01-11T09:54:47;10.20;;;3.43;;
3349;SDS011;1688;51.000;13.684;2024-01-11T09:57:23;5.00;;;4.60;;
3349;SDS011;1688;51.000;13.684;2024-01-11T09:59:58;5.33;;;3.57;;
3349;SDS011;1688;51.000;13.684;2024-01-11T10:02:31;3.13;;;2.60;;
3349;SDS011;1688;51.000;13.684;2024-01-11T10:05:05;12.37;;;5.37;;
3349;SDS011;1688;51.000;13.684;2024-01-11T10:07:39;3.93;;;3.33;;
3349;SDS011;1688;51.000;13.684;2024-01-11T10:10:13;7.60;;;3.47;;
3349;SDS011;1688;51.000;13.684;2024-01-11T10:12:49;8.90;;;3.70;;
3349;SDS011;1688;51.000;13.684;2024-01-11T10:15:23;3.97;;;3.33;;
3349;SDS011;1688;51.000;13.684;2024-01-11T10:17:57;4.80;;;2.50;;
3349;SDS011;1688;51.000;13.684;2024-01-11T10:20:31;3.53;;;3.23;;
3349;SDS011;1688;51.000;13.684;2024-01-11T10:23:05;8.67;;;3.90;;
3349;SDS011;1688;51.000;13.684;2024-01-11T10:25:38;7.90;;;3.23;;
3349;SDS011;1688;51.000;13.684;2024-01-11T10:28:13;3.27;;;3.03;;
3349;SDS011;1688;51.000;13.684;2024-01-11T10:30:46;9.03;;;4.67;;
3349;SDS011;1688;51.000;13.684;2024-01-11T10:33:21;5.20;;;4.00;;
3349;SDS011;1688;51.000;13.684;2024-01-11T10:35:54;2.63;;;2.43;;
3349;SDS011;1688;51.000;13.684;2024-01-11T10:38:29;4.53;;;4.17;;
3349;SDS011;1688;51.000;13.684;2024-01-11T10:41:04;4.30;;;4.00;;
3349;SDS011;1688;51.000;13.684;2024-01-11T10:43:38;14.20;;;4.00;;
3349;SDS011;1688;51.000;13.684;2024-01-11T10:46:11;2.13;;;1.90;;
3349;SDS011;1688;51.000;13.684;2024-01-11T10:48:45;6.53;;;3.90;;
3349;SDS011;1688;51.000;13.684;2024-01-11T10:51:19;9.63;;;4.77;;
3349;SDS011;1688;51.000;13.684;2024-01-11T10:53:54;5.80;;;4.27;;
3349;SDS011;1688;51.000;13.684;2024-01-11T10:56:29;4.23;;;3.97;;
3349;SDS011;1688;51.000;13.684;2024-01-11T10:59:02;12.97;;;3.07;;
3349;SDS011;1688;51.000;13.684;2024-01-11T11:01:37;4.87;;;4.10;;
3349;SDS011;1688;51.000;13.684;2024-01-11T11:04:11;6.33;;;4.37;;
3349;SDS011;1688;51.000;13.684;2024-01-11T11:06:46;2.83;;;2.63;;
3349;SDS011;1688;51.000;13.684;2024-01-11T11:09:21;6.43;;;3.97;;
3349;SDS011;1688;51.000;13.684;2024-01-11T11:11:58;8.60;;;3.40;;
3349;SDS011;1688;51.000;13.684;2024-01-11T11:14:31;6.33;;;2.23;;
3349;SDS011;1688;51.000;13.684;2024-01-11T11:17:06;5.77;;;1.03;;
3349;SDS011;1688;51.000;13.684;2024-01-11T11:19:39;5.43;;;3.57;;
3349;SDS011;1688;51.000;13.684;2024-01-11T11:22:13;6.80;;;3.43;;
3349;SDS011;1688;51.000;13.684;2024-01-11T11:24:47;5.77;;;3.40;;
3349;SDS011;1688;51.000;13.684;2024-01-11T11:27:21;3.43;;;3.13;;
3349;SDS011;1688;51.000;13.684;2024-01-11T11:29:54;4.37;;;4.07;;
3349;SDS011;1688;51.000;13.684;2024-01-11T11:32:37;8.50;;;2.77;;
3349;SDS011;1688;51.000;13.684;2024-01-11T11:35:11;5.10;;;3.93;;
3349;SDS011;1688;51.000;13.684;2024-01-11T11:37:45;5.67;;;3.67;;
3349;SDS011;1688;51.000;13.684;2024-01-11T11:40:19;2.80;;;2.70;;
3349;SDS011;1688;51.000;13.684;2024-01-11T11:42:52;4.60;;;4.30;;
3349;SDS011;1688;51.000;13.684;2024-01-11T11:45:26;4.03;;;3.63;;
3349;SDS011;1688;51.000;13.684;2024-01-11T11:47:59;3.67;;;3.33;;
3349;SDS011;1688;51.000;13.684;2024-01-11T11:50:33;5.50;;;5.10;;
3349;SDS011;1688;51.000;13.684;2024-01-11T11:53:07;6.53;;;3.47;;
3349;SDS011;1688;51.000;13.684;2024-01-11T11:55:43;8.43;;;2.90;;
3349;SDS011;1688;51.000;13.684;2024-01-11T11:58:16;17.73;;;5.57;;
3349;SDS011;1688;51.000;13.684;2024-01-11T12:00:50;15.27;;;5.40;;
3349;SDS011;1688;51.000;13.684;2024-01-11T12:03:33;3.90;;;2.87;;
3349;SDS011;1688;51.000;13.684;2024-01-11T12:06:10;11.53;;;5.97;;
3349;SDS011;1688;51.000;13.684;2024-01-11T12:08:44;4.20;;;3.90;;
3349;SDS011;1688;51.000;13.684;2024-01-11T12:11:19;6.53;;;3.80;;
3349;SDS011;1688;51.000;13.684;2024-01-11T12:13:53;4.03;;;2.70;;
3349;SDS011;1688;51.000;13.684;2024-01-11T12:16:28;8.80;;;3.80;;
3349;SDS011;1688;51.000;13.684;2024-01-11T12:19:01;6.70;;;4.47;;
3349;SDS011;1688;51.000;13.684;2024-01-11T12:21:35;3.23;;;2.60;;
3349;SDS011;1688;51.000;13.684;2024-01-11T12:24:09;8.30;;;2.70;;
3349;SDS011;1688;51.000;13.684;2024-01-11T12:26:43;18.73;;;5.47;;
3349;SDS011;1688;51.000;13.684;2024-01-11T12:29:19;4.93;;;3.93;;
3349;SDS011;1688;51.000;13.684;2024-01-11T12:31:53;7.73;;;5.67;;
3349;SDS011;1688;51.000;13.684;2024-01-11T12:34:27;6.07;;;5.43;;
3349;SDS011;1688;51.000;13.684;2024-01-11T12:37:01;10.00;;;4.83;;
3349;SDS011;1688;51.000;13.684;2024-01-11T12:39:38;10.60;;;4.80;;
3349;SDS011;1688;51.000;13.684;2024-01-11T12:42:11;8.97;;;3.50;;
3349;SDS011;1688;51.000;13.684;2024-01-11T12:44:45;12.23;;;4.93;;
3349;SDS011;1688;51.000;13.684;2024-01-11T12:47:25;5.20;;;4.63;;
3349;SDS011;1688;51.000;13.684;2024-01-11T12:53:39;5.03;;;4.37;;
3349;SDS011;1688;51.000;13.684;2024-01-11T12:56:33;12.37;;;4.27;;
3349;SDS011;1688;51.000;13.684;2024-01-11T12:59:07;7.77;;;4.33;;
3349;SDS011;1688;51.000;13.684;2024-01-11T13:01:41;6.93;;;3.90;;
3349;SDS011;1688;51.000;13.684;2024-01-11T13:04:15;5.57;;;3.07;;
3349;SDS011;1688;51.000;13.684;2024-01-11T13:06:48;19.77;;;5.07;;
3349;SDS011;1688;51.000;13.684;2024-01-11T13:09:21;9.13;;;5.07;;
3349;SDS011;1688;51.000;13.684;2024-01-11T13:11:55;7.47;;;3.17;;
3349;SDS011;1688;51.000;13.684;2024-01-11T13:14:28;15.57;;;9.03;;
3349;SDS011;1688;51.000;13.684;2024-01-11T13:17:02;5.73;;;3.37;;
3349;SDS011;1688;51.000;13.684;2024-01-11T13:19:35;3.70;;;3.40;;
3349;SDS011;1688;51.000;13.684;2024-01-11T13:22:08;3.63;;;3.10;;
3349;SDS011;1688;51.000;13.684;2024-01-11T13:24:42;7.23;;;4.00;;
3349;SDS011;1688;51.000;13.684;2024-01-11T13:27:15;6.67;;;3.53;;
3349;SDS011;1688;51.000;13.684;2024-01-11T13:29:48;24.90;;;8.20;;
3349;SDS011;1688;51.000;13.684;2024-01-11T13:32:22;4.87;;;4.43;;
3349;SDS011;1688;51.000;13.684;2024-01-11T13:34:55;7.10;;;5.20;;
3349;SDS011;1688;51.000;13.684;2024-01-11T13:37:29;20.43;;;6.00;;
3349;SDS011;1688;51.000;13.684;2024-01-11T13:40:02;5.77;;;5.07;;
3349;SDS011;1688;51.000;13.684;2024-01-11T13:42:35;17.13;;;5.40;;
3349;SDS011;1688;51.000;13.684;2024-01-11T13:45:09;4.97;;;4.57;;
3349;SDS011;1688;51.000;13.684;2024-01-11T13:47:42;10.70;;;5.00;;
3349;SDS011;1688;51.000;13.684;2024-01-11T13:50:15;4.30;;;3.60;;
3349;SDS011;1688;51.000;13.684;2024-01-11T13:52:49;6.17;;;5.17;;
3349;SDS011;1688;51.000;13.684;2024-01-11T13:55:23;5.40;;;3.30;;
3349;SDS011;1688;51.000;13.684;2024-01-11T13:57:56;14.57;;;7.53;;
3349;SDS011;1688;51.000;13.684;2024-01-11T14:00:30;9.23;;;4.93;;
3349;SDS011;1688;51.000;13.684;2024-01-11T14:03:03;6.70;;;6.10;;
3349;SDS011;1688;51.000;13.684;2024-01-11T14:05:38;9.83;;;4.83;;
3349;SDS011;1688;51.000;13.684;2024-01-11T14:08:11;10.37;;;7.23;;
3349;SDS011;1688;51.000;13.684;2024-01-11T14:10:44;13.90;;;6.00;;
3349;SDS011;1688;51.000;13.684;2024-01-11T14:13:17;8.90;;;6.03;;
3349;SDS011;1688;51.000;13.684;2024-01-11T14:15:51;19.60;;;11.10;;
3349;SDS011;1688;51.000;13.684;2024-01-11T14:18:26;6.60;;;4.67;;
3349;SDS011;1688;51.000;13.684;2024-01-11T14:20:59;9.70;;;4.90;;
3349;SDS011;1688;51.000;13.684;2024-01-11T14:23:32;6.23;;;4.07;;
3349;SDS011;1688;51.000;13.684;2024-01-11T14:26:06;15.03;;;4.07;;
3349;SDS011;1688;51.000;13.684;2024-01-11T14:28:39;3.57;;;3.20;;
3349;SDS011;1688;51.000;13.684;2024-01-11T14:31:15;9.30;;;4.53;;
3349;SDS011;1688;51.000;13.684;2024-01-11T14:33:48;18.03;;;4.97;;
3349;SDS011;1688;51.000;13.684;2024-01-11T14:36:22;10.00;;;4.40;;
3349;SDS011;1688;51.000;13.684;2024-01-11T14:38:55;5.10;;;2.70;;
3349;SDS011;1688;51.000;13.684;2024-01-11T14:41:29;6.23;;;3.50;;
3349;SDS011;1688;51.000;13.684;2024-01-11T14:44:03;4.37;;;4.07;;
3349;SDS011;1688;51.000;13.684;2024-01-11T14:46:37;8.30;;;5.70;;
3349;SDS011;1688;51.000;13.684;2024-01-11T14:49:10;10.23;;;4.10;;
3349;SDS011;1688;51.000;13.684;2024-01-11T14:51:43;13.03;;;6.67;;
3349;SDS011;1688;51.000;13.684;2024-01-11T14:54:17;5.80;;;4.83;;
3349;SDS011;1688;51.000;13.684;2024-01-11T14:56:52;9.03;;;5.50;;
3349;SDS011;1688;51.000;13.684;2024-01-11T14:59:25;2.97;;;2.70;;
3349;SDS011;1688;51.000;13.684;2024-01-11T15:01:59;12.83;;;6.97;;
3349;SDS011;1688;51.000;13.684;2024-01-11T15:04:32;7.07;;;4.30;;
3349;SDS011;1688;51.000;13.684;2024-01-11T15:07:05;16.93;;;8.70;;
3349;SDS011;1688;51.000;13.684;2024-01-11T15:09:39;13.10;;;4.97;;
3349;SDS011;1688;51.000;13.684;2024-01-11T15:12:13;18.70;;;5.33;;
3349;SDS011;1688;51.000;13.684;2024-01-11T15:14:46;5.53;;;4.13;;
3349;SDS011;1688;51.000;13.684;2024-01-11T15:17:23;5.70;;;5.20;;
3349;SDS011;1688;51.000;13.684;2024-01-11T15:19:56;20.00;;;6.67;;
3349;SDS011;1688;51.000;13.684;2024-01-11T15:22:30;7.00;;;4.67;;
3349;SDS011;1688;51.000;13.684;2024-01-11T15:25:03;13.70;;;6.23;;
3349;SDS011;1688;51.000;13.684;2024-01-11T15:27:36;4.73;;;4.30;;
3349;SDS011;1688;51.000;13.684;2024-01-11T15:30:10;13.10;;;8.73;;
3349;SDS011;1688;51.000;13.684;2024-01-11T15:32:45;9.13;;;6.53;;
3349;SDS011;1688;51.000;13.684;2024-01-11T15:35:18;13.83;;;6.53;;
3349;SDS011;1688;51.000;13.684;2024-01-11T15:37:51;12.57;;;8.50;;
3349;SDS011;1688;51.000;13.684;2024-01-11T15:40:25;6.40;;;5.90;;
3349;SDS011;1688;51.000;13.684;2024-01-11T15:42:59;10.27;;;4.77;;
3349;SDS011;1688;51.000;13.684;2024-01-11T15:45:33;4.23;;;3.83;;
3349;SDS011;1688;51.000;13.684;2024-01-11T15:48:08;11.43;;;4.60;;
3349;SDS011;1688;51.000;13.684;2024-01-11T15:50:42;7.20;;;6.57;;
3349;SDS011;1688;51.000;13.684;2024-01-11T15:53:15;4.47;;;4.17;;
3349;SDS011;1688;51.000;13.684;2024-01-11T15:55:48;8.53;;;7.83;;
3349;SDS011;1688;51.000;13.684;2024-01-11T15:58:23;8.90;;;7.30;;
3349;SDS011;1688;51.000;13.684;2024-01-11T16:00:56;30.23;;;6.37;;
3349;SDS011;1688;51.000;13.684;2024-01-11T16:03:29;13.10;;;5.50;;
3349;SDS011;1688;51.000;13.684;2024-01-11T16:06:03;8.43;;;7.63;;
3349;SDS011;1688;51.000;13.684;2024-01-11T16:08:36;10.33;;;4.03;;